Time;durP1;ratioP1;P1;durP2;ratioP2;P2;SDS_P1;SDS_P2;PMS_P1;PMS_P2;Temp;Humidity;BMP_temperature;BMP_pressure;BME280_temperature;BME280_humidity;BME280_pressure;Samples;Min_cycle;Max_cycle;Signal;HPM_P1;HPM_P2
2021/01/08 00:01:42;;;;;;;19.70;13.23;;;1.30;74.90;;;;;;5059969;28;20446;-85
2021/01/08 00:04:09;;;;;;;20.50;14.00;;;1.30;75.00;;;;;;5056773;28;20447;-85
2021/01/08 00:06:35;;;;;;;15.57;11.93;;;1.30;74.90;;;;;;5055224;28;20445;-85
2021/01/08 00:09:03;;;;;;;17.30;12.43;;;1.30;75.30;;;;;;5056151;28;20457;-85
2021/01/08 00:11:34;;;;;;;18.83;13.37;;;1.40;75.30;;;;;;5041888;28;20450;-85
2021/01/08 00:14:03;;;;;;;19.73;13.47;;;1.30;75.60;;;;;;5067737;28;20481;-85
2021/01/08 00:16:35;;;;;;;17.90;12.50;;;1.30;75.70;;;;;;5073381;28;20446;-86
2021/01/08 00:19:01;;;;;;;18.30;13.50;;;1.40;75.90;;;;;;5073669;28;20462;-86
2021/01/08 00:21:38;;;;;;;17.20;13.10;;;1.40;76.70;;;;;;5036760;28;20459;-85
2021/01/08 00:24:06;;;;;;;18.23;13.47;;;1.40;76.00;;;;;;5059510;28;20450;-86
2021/01/08 00:26:33;;;;;;;24.10;15.20;;;1.30;75.80;;;;;;5071288;28;20446;-85
2021/01/08 00:29:01;;;;;;;17.50;13.00;;;1.30;75.80;;;;;;5075349;28;20454;-84
2021/01/08 00:31:37;;;;;;;17.13;12.90;;;1.40;76.20;;;;;;5079252;28;20481;-85
2021/01/08 00:34:05;;;;;;;19.60;14.17;;;1.20;76.20;;;;;;5059105;28;20530;-85
2021/01/08 00:36:36;;;;;;;19.77;14.70;;;1.30;76.00;;;;;;5057935;28;20450;-83
2021/01/08 00:39:06;;;;;;;17.87;13.77;;;1.30;76.30;;;;;;5062903;28;20446;-83
2021/01/08 00:41:34;;;;;;;20.43;14.17;;;1.20;76.00;;;;;;5059618;28;20453;-85
2021/01/08 00:44:01;;;;;;;19.30;14.43;;;1.20;76.40;;;;;;5059927;28;20441;-86
2021/01/08 00:46:38;;;;;;;20.03;13.47;;;1.10;76.40;;;;;;5051574;28;20547;-85
2021/01/08 00:49:05;;;;;;;19.60;14.30;;;1.20;76.60;;;;;;5059913;28;20447;-84
2021/01/08 00:51:32;;;;;;;21.17;13.57;;;1.20;77.10;;;;;;5056753;28;20466;-85
2021/01/08 00:53:59;;;;;;;18.67;13.93;;;1.30;77.80;;;;;;5062737;28;20460;-84
2021/01/08 00:56:26;;;;;;;20.53;13.83;;;1.20;77.70;;;;;;5062575;28;20475;-85
2021/01/08 00:58:53;;;;;;;18.70;13.97;;;1.10;79.10;;;;;;5061263;28;21457;-84
2021/01/08 01:01:20;;;;;;;28.33;16.23;;;1.10;79.50;;;;;;5075083;28;20457;-85
2021/01/08 01:03:48;;;;;;;20.37;14.20;;;1.20;80.00;;;;;;5074925;28;20476;-84
2021/01/08 01:06:22;;;;;;;19.00;13.57;;;1.10;81.00;;;;;;5057280;28;20454;-85
2021/01/08 01:08:49;;;;;;;17.43;13.90;;;1.10;80.50;;;;;;5045128;28;20451;-85
2021/01/08 01:11:16;;;;;;;22.50;15.53;;;1.20;81.30;;;;;;5057788;28;20493;-84
2021/01/08 01:13:43;;;;;;;21.53;14.27;;;1.10;81.60;;;;;;5054995;28;20524;-85
2021/01/08 01:16:11;;;;;;;23.10;14.93;;;1.00;81.80;;;;;;5048426;28;20953;-85
2021/01/08 01:18:40;;;;;;;24.50;14.93;;;1.00;82.60;;;;;;5050406;28;20466;-85
2021/01/08 01:21:08;;;;;;;19.17;14.37;;;1.00;82.70;;;;;;5057747;28;20442;-85
2021/01/08 01:23:38;;;;;;;19.53;14.60;;;1.00;83.30;;;;;;5039652;28;20460;-85
2021/01/08 01:26:06;;;;;;;21.57;14.97;;;1.00;83.70;;;;;;5058372;28;20514;-85
2021/01/08 01:28:33;;;;;;;21.27;14.80;;;1.00;84.00;;;;;;5034858;28;20496;-85
2021/01/08 01:30:59;;;;;;;19.20;14.03;;;1.00;84.50;;;;;;5038903;28;20470;-84
2021/01/08 01:33:26;;;;;;;21.30;15.57;;;1.00;83.90;;;;;;5056011;28;20454;-84
2021/01/08 01:35:54;;;;;;;21.37;15.63;;;1.00;84.70;;;;;;5055643;28;20449;-85
2021/01/08 01:38:23;;;;;;;20.23;14.50;;;1.00;84.80;;;;;;5054606;28;20452;-85
2021/01/08 01:40:50;;;;;;;22.63;15.00;;;0.90;84.80;;;;;;5018777;28;20519;-85
2021/01/08 01:43:17;;;;;;;19.50;14.83;;;1.00;85.30;;;;;;5055682;28;20465;-85
2021/01/08 01:45:44;;;;;;;22.30;16.00;;;0.90;84.90;;;;;;5055448;28;20451;-85
2021/01/08 01:48:13;;;;;;;20.80;14.93;;;0.90;85.40;;;;;;5052770;28;20473;-84
2021/01/08 01:50:40;;;;;;;22.73;15.90;;;1.00;86.00;;;;;;5055976;28;20466;-84
2021/01/08 01:53:07;;;;;;;20.83;15.47;;;1.00;86.10;;;;;;5055042;28;20457;-85
2021/01/08 01:55:35;;;;;;;22.43;15.63;;;1.10;86.20;;;;;;5055726;28;20946;-85
2021/01/08 01:58:04;;;;;;;21.87;16.50;;;0.90;86.70;;;;;;5057742;28;20806;-85
2021/01/08 02:00:31;;;;;;;23.40;16.17;;;1.10;86.60;;;;;;5056600;28;20836;-84
2021/01/08 02:03:04;;;;;;;21.27;16.30;;;1.00;86.40;;;;;;5050827;28;20470;-85
2021/01/08 02:05:35;;;;;;;22.50;17.03;;;1.00;86.50;;;;;;5062252;28;20449;-85
2021/01/08 02:08:04;;;;;;;22.47;16.03;;;1.00;86.80;;;;;;5062787;28;21093;-84
2021/01/08 02:10:39;;;;;;;23.13;16.90;;;1.00;86.80;;;;;;5066124;28;20465;-85
2021/01/08 02:13:11;;;;;;;22.90;15.63;;;1.00;87.80;;;;;;5065297;28;20540;-85
2021/01/08 02:15:38;;;;;;;19.93;14.73;;;1.10;87.90;;;;;;5062190;28;20452;-85
2021/01/08 02:18:06;;;;;;;22.47;17.00;;;1.10;87.60;;;;;;5063228;28;20458;-82
2021/01/08 02:20:34;;;;;;;22.57;15.80;;;1.10;88.30;;;;;;5062970;28;20488;-83
2021/01/08 02:23:07;;;;;;;23.50;16.57;;;1.10;88.40;;;;;;5068077;28;20475;-83
2021/01/08 02:25:36;;;;;;;21.27;15.47;;;1.20;88.00;;;;;;5062764;28;20486;-82
2021/01/08 02:28:21;;;;;;;21.03;15.60;;;1.10;88.00;;;;;;5059538;28;20465;-83
2021/01/08 02:30:50;;;;;;;21.67;15.47;;;1.10;88.60;;;;;;5062977;28;20493;-82
2021/01/08 02:33:18;;;;;;;21.80;14.90;;;1.10;89.70;;;;;;5059561;28;20805;-83
2021/01/08 02:35:49;;;;;;;21.40;16.30;;;1.10;89.60;;;;;;5067492;28;20519;-83
2021/01/08 02:38:19;;;;;;;20.00;15.50;;;1.00;90.00;;;;;;5063532;28;21064;-83
2021/01/08 02:40:49;;;;;;;22.60;16.00;;;1.00;90.50;;;;;;5063334;28;20838;-83
2021/01/08 02:43:19;;;;;;;22.57;15.93;;;1.00;90.40;;;;;;5063407;28;20464;-83
2021/01/08 02:45:46;;;;;;;22.57;15.80;;;1.10;90.50;;;;;;5062469;28;20459;-83
2021/01/08 02:48:13;;;;;;;22.00;14.57;;;1.10;90.40;;;;;;5061898;28;20440;-83
2021/01/08 02:50:39;;;;;;;20.70;14.20;;;1.10;89.10;;;;;;5064743;28;20472;-84
2021/01/08 02:53:09;;;;;;;20.83;14.87;;;1.10;89.30;;;;;;5073536;28;20458;-82
2021/01/08 02:55:40;;;;;;;18.33;13.90;;;1.00;88.10;;;;;;5074675;28;20449;-82
2021/01/08 02:58:08;;;;;;;19.00;14.07;;;1.00;89.50;;;;;;5062353;28;20509;-82
2021/01/08 03:00:35;;;;;;;21.60;14.57;;;1.10;87.30;;;;;;5064794;28;20466;-82
2021/01/08 03:03:02;;;;;;;19.77;14.20;;;1.00;87.10;;;;;;5046885;28;20471;-82
2021/01/08 03:05:32;;;;;;;16.43;13.77;;;1.20;87.50;;;;;;5064311;28;20472;-82
2021/01/08 03:08:01;;;;;;;16.80;12.77;;;1.10;85.70;;;;;;5071002;28;20437;-83
2021/01/08 03:10:27;;;;;;;15.83;12.30;;;1.10;83.20;;;;;;5065873;28;20455;-83
2021/01/08 03:12:58;;;;;;;17.20;12.17;;;1.00;82.70;;;;;;5064628;28;20478;-82
2021/01/08 03:15:26;;;;;;;15.87;11.87;;;1.10;82.90;;;;;;5063153;28;20464;-82
2021/01/08 03:17:53;;;;;;;14.23;11.33;;;1.00;80.00;;;;;;5060053;28;20523;-83
2021/01/08 03:20:20;;;;;;;12.23;9.43;;;1.10;80.60;;;;;;5067494;28;20453;-82
2021/01/08 03:22:49;;;;;;;13.63;10.20;;;1.00;78.90;;;;;;5065246;28;20458;-82
2021/01/08 03:25:16;;;;;;;13.03;10.40;;;1.00;77.90;;;;;;5063977;28;20524;-82
2021/01/08 03:27:42;;;;;;;13.30;8.97;;;1.00;77.90;;;;;;5065077;28;20455;-82
2021/01/08 03:30:09;;;;;;;13.17;9.97;;;1.00;77.10;;;;;;5046865;28;20980;-83
2021/01/08 03:32:37;;;;;;;9.50;8.47;;;1.00;77.10;;;;;;5061939;28;20456;-82
2021/01/08 03:35:05;;;;;;;10.43;9.20;;;1.10;76.70;;;;;;5067728;28;20458;-82
2021/01/08 03:37:33;;;;;;;13.20;9.43;;;1.00;75.20;;;;;;5072960;28;20450;-82
2021/01/08 03:40:00;;;;;;;13.30;8.80;;;1.10;75.40;;;;;;5062954;28;20457;-83
2021/01/08 03:42:29;;;;;;;10.10;8.10;;;1.00;75.10;;;;;;5062956;28;20470;-82
2021/01/08 03:44:58;;;;;;;11.37;8.47;;;1.00;75.00;;;;;;5060767;28;20475;-82
2021/01/08 03:47:24;;;;;;;8.60;7.17;;;1.00;74.40;;;;;;5064473;28;20448;-82
2021/01/08 03:49:52;;;;;;;8.67;6.83;;;1.10;74.00;;;;;;5060788;28;21093;-82
2021/01/08 03:52:19;;;;;;;9.80;6.53;;;0.90;73.10;;;;;;5053061;28;20450;-82
2021/01/08 03:54:46;;;;;;;8.57;7.70;;;0.90;73.20;;;;;;5058051;28;20454;-82
2021/01/08 03:57:14;;;;;;;9.60;7.47;;;0.90;73.40;;;;;;5063361;28;20454;-83
2021/01/08 03:59:44;;;;;;;13.10;8.60;;;0.90;73.10;;;;;;5076203;28;20501;-83
2021/01/08 04:02:10;;;;;;;10.33;8.10;;;0.90;73.20;;;;;;5066879;28;20472;-82
2021/01/08 04:04:38;;;;;;;13.60;8.43;;;0.90;73.00;;;;;;5057346;28;20482;-83
2021/01/08 04:07:06;;;;;;;12.10;8.80;;;0.90;73.10;;;;;;5051976;28;20454;-83
2021/01/08 04:09:38;;;;;;;12.37;8.77;;;0.90;73.80;;;;;;5058136;28;20495;-83
2021/01/08 04:12:14;;;;;;;11.40;8.67;;;0.90;73.40;;;;;;5056902;28;20461;-83
2021/01/08 04:14:40;;;;;;;11.07;8.70;;;0.90;73.50;;;;;;5057707;28;20500;-83
2021/01/08 04:17:07;;;;;;;10.60;8.90;;;0.90;74.10;;;;;;5051793;28;20446;-83
2021/01/08 04:19:37;;;;;;;10.43;8.60;;;0.90;73.50;;;;;;5072359;28;20465;-83
2021/01/08 04:22:05;;;;;;;12.10;9.30;;;0.90;73.80;;;;;;5073773;28;20562;-84
2021/01/08 04:24:31;;;;;;;10.90;8.10;;;0.80;73.50;;;;;;5072283;28;20455;-82
2021/01/08 04:26:57;;;;;;;11.90;9.10;;;0.80;73.50;;;;;;5068275;28;20459;-82
2021/01/08 04:29:27;;;;;;;13.10;9.20;;;0.80;74.10;;;;;;5059954;28;20553;-82
2021/01/08 04:31:53;;;;;;;11.90;9.40;;;0.70;73.60;;;;;;5062273;28;20485;-82
2021/01/08 04:34:21;;;;;;;11.53;7.97;;;0.70;73.60;;;;;;5057444;28;20456;-83
2021/01/08 04:36:48;;;;;;;12.40;8.53;;;0.70;73.00;;;;;;5069191;28;20461;-83
2021/01/08 04:39:15;;;;;;;10.37;8.20;;;0.60;73.30;;;;;;5072598;28;20473;-83
2021/01/08 04:41:42;;;;;;;9.70;8.70;;;0.60;72.90;;;;;;5067170;28;20467;-82
2021/01/08 04:44:13;;;;;;;11.00;7.87;;;0.50;72.80;;;;;;5064060;28;20462;-83
2021/01/08 04:46:46;;;;;;;10.50;7.97;;;0.50;72.70;;;;;;5064671;28;20450;-81
2021/01/08 04:49:14;;;;;;;13.60;9.03;;;0.50;72.80;;;;;;5059282;28;20463;-82
2021/01/08 04:51:47;;;;;;;11.03;8.10;;;0.70;73.20;;;;;;5066800;28;20574;-81
2021/01/08 04:54:17;;;;;;;10.63;8.13;;;0.70;72.70;;;;;;5056743;28;20451;-80
2021/01/08 04:56:46;;;;;;;12.80;9.30;;;0.70;72.60;;;;;;5056832;28;20454;-80
2021/01/08 04:59:13;;;;;;;10.23;8.00;;;0.70;72.30;;;;;;5041335;28;20461;-79
2021/01/08 05:01:39;;;;;;;10.10;8.10;;;0.70;72.10;;;;;;5059371;28;20438;-81
2021/01/08 05:04:06;;;;;;;9.97;8.10;;;0.60;71.80;;;;;;5060393;28;20472;-82
2021/01/08 05:06:33;;;;;;;10.97;7.00;;;0.70;72.10;;;;;;5052343;28;20971;-82
2021/01/08 05:09:00;;;;;;;9.13;7.53;;;0.70;71.80;;;;;;5058907;28;20481;-82
2021/01/08 05:11:28;;;;;;;8.40;6.67;;;0.70;71.20;;;;;;5060745;28;20465;-77
2021/01/08 05:13:56;;;;;;;9.20;7.10;;;0.70;71.10;;;;;;5050620;28;20551;-79
2021/01/08 05:16:25;;;;;;;9.53;7.03;;;0.80;71.60;;;;;;5045433;28;20536;-77
2021/01/08 05:18:53;;;;;;;10.50;7.83;;;0.80;71.20;;;;;;5044144;28;20872;-77
2021/01/08 05:21:24;;;;;;;11.87;6.93;;;0.80;71.10;;;;;;5048815;28;20548;-80
2021/01/08 05:23:52;;;;;;;6.93;6.23;;;0.80;70.60;;;;;;5052696;28;20453;-76
2021/01/08 05:26:19;;;;;;;8.83;6.80;;;0.80;70.60;;;;;;5050230;28;20477;-76
2021/01/08 05:28:48;;;;;;;14.73;7.47;;;0.90;70.50;;;;;;5047105;28;20585;-76
2021/01/08 05:31:16;;;;;;;8.50;7.60;;;0.80;70.30;;;;;;5048188;28;20454;-77
2021/01/08 05:33:44;;;;;;;7.77;6.33;;;0.80;70.10;;;;;;5046720;28;20437;-77
2021/01/08 05:36:13;;;;;;;8.67;6.70;;;0.80;70.70;;;;;;5052599;28;20457;-79
2021/01/08 05:38:41;;;;;;;8.43;7.27;;;0.90;69.80;;;;;;5054695;28;20477;-77
2021/01/08 05:41:10;;;;;;;8.13;7.23;;;0.80;70.10;;;;;;5047552;28;20452;-76
2021/01/08 05:43:39;;;;;;;7.80;6.63;;;0.90;70.40;;;;;;5048550;28;20788;-77
2021/01/08 05:46:14;;;;;;;10.03;7.20;;;0.80;69.90;;;;;;5049105;28;21016;-77
2021/01/08 05:48:47;;;;;;;8.47;6.50;;;0.90;70.00;;;;;;5040716;28;20441;-77
2021/01/08 05:51:18;;;;;;;10.03;7.43;;;0.80;70.00;;;;;;5046615;28;20837;-78
2021/01/08 05:53:47;;;;;;;11.70;7.43;;;0.80;69.70;;;;;;5048579;28;20446;-77
2021/01/08 05:56:15;;;;;;;9.87;7.57;;;0.80;69.90;;;;;;5046144;28;20466;-76
2021/01/08 05:58:42;;;;;;;10.40;7.60;;;0.80;69.70;;;;;;5047207;28;20455;-77
2021/01/08 06:01:08;;;;;;;8.80;7.20;;;0.80;70.10;;;;;;5049583;28;20537;-77
2021/01/08 06:03:37;;;;;;;8.57;6.87;;;0.90;70.20;;;;;;5048721;28;20828;-77
2021/01/08 06:06:04;;;;;;;9.63;7.90;;;0.90;70.50;;;;;;5047707;28;20437;-76
2021/01/08 06:08:32;;;;;;;12.13;8.27;;;0.90;70.60;;;;;;5048131;28;20456;-76
2021/01/08 06:11:00;;;;;;;10.30;7.60;;;1.00;71.10;;;;;;5047079;28;20470;-78
2021/01/08 06:13:30;;;;;;;10.53;8.03;;;1.10;71.00;;;;;;5048750;28;20900;-77
2021/01/08 06:15:57;;;;;;;10.97;7.80;;;1.00;70.50;;;;;;5047452;28;20450;-78
2021/01/08 06:18:25;;;;;;;9.73;7.63;;;1.00;70.40;;;;;;5046758;28;20555;-78
2021/01/08 06:20:57;;;;;;;10.13;8.33;;;1.00;70.20;;;;;;5050403;28;20977;-77
2021/01/08 06:23:35;;;;;;;9.90;8.47;;;1.00;70.50;;;;;;5044597;28;20433;-77
2021/01/08 06:26:02;;;;;;;11.20;8.37;;;1.00;70.70;;;;;;5049843;28;20452;-76
2021/01/08 06:28:34;;;;;;;9.17;7.83;;;0.90;70.60;;;;;;5063829;28;20454;-76
2021/01/08 06:31:05;;;;;;;10.53;7.73;;;0.90;70.60;;;;;;5067296;28;20505;-77
2021/01/08 06:33:36;;;;;;;8.77;7.37;;;0.90;70.80;;;;;;5061350;28;20474;-77
2021/01/08 06:36:18;;;;;;;11.23;8.07;;;0.90;70.80;;;;;;5051232;28;20442;-77
2021/01/08 06:38:48;;;;;;;11.47;7.93;;;0.90;70.90;;;;;;5052286;28;20481;-78
2021/01/08 06:41:16;;;;;;;11.60;8.33;;;0.90;71.00;;;;;;5052525;28;20924;-78
2021/01/08 06:43:47;;;;;;;18.27;8.90;;;1.20;71.60;;;;;;5049742;28;20462;-76
2021/01/08 06:46:25;;;;;;;12.90;8.23;;;0.90;71.20;;;;;;5050683;28;20471;-76
2021/01/08 06:48:54;;;;;;;9.63;7.97;;;0.90;71.30;;;;;;5050099;28;20530;-78
2021/01/08 06:51:26;;;;;;;12.43;8.33;;;0.90;71.60;;;;;;5050995;28;20477;-77
2021/01/08 06:53:57;;;;;;;11.53;8.23;;;0.90;71.50;;;;;;5054123;28;20859;-79
2021/01/08 06:56:31;;;;;;;10.87;8.57;;;0.80;71.60;;;;;;5062568;28;20480;-81
2021/01/08 06:58:59;;;;;;;11.90;9.10;;;0.70;71.80;;;;;;5055530;28;20951;-76
2021/01/08 07:01:33;;;;;;;11.47;8.27;;;0.60;72.20;;;;;;5048018;28;21012;-78
2021/01/08 07:04:00;;;;;;;11.43;8.93;;;0.60;72.60;;;;;;5055267;28;20480;-77
2021/01/08 07:06:30;;;;;;;9.87;7.70;;;0.70;72.60;;;;;;5053193;28;20575;-78
2021/01/08 07:08:57;;;;;;;11.33;8.43;;;0.60;72.70;;;;;;5051427;28;20455;-78
2021/01/08 07:11:26;;;;;;;11.27;9.30;;;0.60;72.90;;;;;;5054156;28;20466;-79
2021/01/08 07:14:03;;;;;;;13.50;8.43;;;0.60;72.80;;;;;;5052074;28;20553;-77
2021/01/08 07:16:30;;;;;;;11.20;8.47;;;0.70;73.00;;;;;;5051533;28;20459;-78
2021/01/08 07:19:07;;;;;;;12.33;9.10;;;0.80;73.20;;;;;;5053771;28;21018;-78
2021/01/08 07:21:34;;;;;;;14.57;9.40;;;0.90;73.10;;;;;;5053757;28;20473;-77
2021/01/08 07:24:01;;;;;;;10.77;8.20;;;0.90;73.00;;;;;;5053055;28;20478;-77
2021/01/08 07:26:28;;;;;;;11.80;9.13;;;1.00;73.20;;;;;;5050714;28;20969;-77
2021/01/08 07:28:56;;;;;;;11.50;8.63;;;1.10;73.20;;;;;;5053872;28;20450;-76
2021/01/08 07:31:34;;;;;;;11.57;9.50;;;1.10;73.00;;;;;;5053147;28;20486;-78
2021/01/08 07:34:04;;;;;;;14.40;9.63;;;1.10;72.90;;;;;;5057241;28;20460;-78
2021/01/08 07:36:32;;;;;;;12.03;8.57;;;1.20;73.00;;;;;;5051033;28;20461;-79
2021/01/08 07:39:00;;;;;;;12.40;8.30;;;1.20;72.80;;;;;;5052381;28;20502;-78
2021/01/08 07:41:32;;;;;;;12.47;9.43;;;1.20;72.90;;;;;;5051910;28;20453;-78
2021/01/08 07:43:58;;;;;;;11.27;8.27;;;1.20;73.00;;;;;;5058099;28;20438;-80
2021/01/08 07:46:29;;;;;;;11.47;8.73;;;1.20;72.90;;;;;;5053234;28;20949;-80
2021/01/08 07:49:00;;;;;;;11.97;8.67;;;1.20;72.90;;;;;;5058688;28;20459;-77
2021/01/08 07:51:46;;;;;;;9.87;8.33;;;1.20;73.10;;;;;;5051466;28;20484;-80
2021/01/08 07:54:16;;;;;;;12.90;8.80;;;1.20;72.90;;;;;;5053424;28;20459;-78
2021/01/08 07:57:05;;;;;;;11.57;8.50;;;1.30;73.00;;;;;;5054653;28;20481;-78
2021/01/08 07:59:32;;;;;;;12.87;8.60;;;1.30;73.10;;;;;;5053386;28;20450;-79
2021/01/08 08:01:59;;;;;;;14.50;9.83;;;1.40;72.90;;;;;;5042118;28;20466;-77
2021/01/08 08:04:29;;;;;;;12.10;9.20;;;1.40;72.70;;;;;;5052893;28;20459;-77
2021/01/08 08:06:59;;;;;;;10.90;8.50;;;1.40;72.70;;;;;;5057408;28;20450;-81
2021/01/08 08:09:26;;;;;;;12.20;9.33;;;1.50;72.80;;;;;;5065057;28;20491;-78
2021/01/08 08:11:56;;;;;;;12.67;9.20;;;1.40;72.60;;;;;;5068741;28;20466;-77
2021/01/08 08:14:23;;;;;;;14.10;8.87;;;1.50;72.80;;;;;;5061737;28;20449;-78
2021/01/08 08:16:51;;;;;;;12.30;9.33;;;1.50;72.70;;;;;;5058647;28;20493;-77
2021/01/08 08:19:22;;;;;;;13.77;9.80;;;1.50;72.70;;;;;;5069436;28;20496;-78
2021/01/08 08:21:50;;;;;;;12.67;8.53;;;1.50;72.70;;;;;;5058532;28;20446;-79
2021/01/08 08:24:18;;;;;;;14.50;9.70;;;1.50;72.80;;;;;;5055967;28;20528;-77
2021/01/08 08:26:46;;;;;;;14.73;10.10;;;1.50;72.90;;;;;;5053780;28;20448;-77
2021/01/08 08:29:16;;;;;;;12.70;8.90;;;1.50;73.10;;;;;;5052718;28;20516;-77
2021/01/08 08:31:45;;;;;;;11.33;8.23;;;1.50;73.00;;;;;;5063985;28;20477;-79
2021/01/08 08:34:13;;;;;;;12.37;9.20;;;1.60;72.80;;;;;;5067447;28;20451;-78
2021/01/08 08:36:40;;;;;;;10.47;8.37;;;1.60;73.00;;;;;;5056223;28;20439;-78
2021/01/08 08:39:08;;;;;;;13.67;10.00;;;1.70;72.60;;;;;;5053312;28;20449;-75
2021/01/08 08:41:37;;;;;;;11.43;8.80;;;1.60;72.50;;;;;;5053275;28;20445;-76
2021/01/08 08:44:06;;;;;;;13.70;9.00;;;1.60;72.60;;;;;;5061696;28;20479;-78
2021/01/08 08:46:49;;;;;;;15.40;9.50;;;1.60;72.50;;;;;;5060556;28;20443;-77
2021/01/08 08:49:16;;;;;;;12.77;9.87;;;1.80;72.90;;;;;;5057712;28;20499;-77
2021/01/08 08:51:45;;;;;;;9.30;8.30;;;1.80;72.50;;;;;;5049828;28;20472;-79
2021/01/08 08:54:12;;;;;;;11.00;8.43;;;2.00;72.70;;;;;;5054561;28;21052;-78
2021/01/08 08:56:48;;;;;;;14.03;7.80;;;2.00;72.30;;;;;;5049684;28;20445;-76
2021/01/08 08:59:16;;;;;;;12.20;8.57;;;2.00;72.10;;;;;;5046133;28;20980;-77
2021/01/08 09:01:43;;;;;;;11.20;8.10;;;2.10;72.10;;;;;;5051656;28;20454;-77
2021/01/08 09:04:10;;;;;;;11.40;8.30;;;2.10;71.80;;;;;;5049681;28;20505;-78
2021/01/08 09:06:41;;;;;;;10.77;8.23;;;2.10;71.70;;;;;;5050577;28;21125;-78
2021/01/08 09:09:17;;;;;;;13.00;9.10;;;2.10;71.80;;;;;;5050394;28;20441;-79
2021/01/08 09:12:05;;;;;;;12.30;8.30;;;2.20;72.00;;;;;;5054366;28;20535;-76
2021/01/08 09:14:35;;;;;;;10.60;8.33;;;2.20;71.80;;;;;;5053091;28;20484;-77
2021/01/08 09:17:07;;;;;;;10.87;8.30;;;2.20;72.00;;;;;;5051791;28;20508;-79
2021/01/08 09:19:46;;;;;;;10.10;7.80;;;2.20;71.80;;;;;;5047860;28;20462;-78
2021/01/08 09:22:14;;;;;;;11.87;8.40;;;2.20;71.90;;;;;;5043917;28;20501;-78
2021/01/08 09:24:44;;;;;;;13.30;9.10;;;2.20;72.00;;;;;;5054109;28;20974;-79
2021/01/08 09:27:11;;;;;;;10.87;8.33;;;2.20;72.20;;;;;;5049260;28;20471;-77
2021/01/08 09:29:39;;;;;;;10.27;8.17;;;2.20;72.10;;;;;;5052894;28;20459;-77
2021/01/08 09:32:08;;;;;;;11.13;8.60;;;2.10;72.30;;;;;;5053107;28;21008;-78
2021/01/08 09:34:36;;;;;;;12.93;8.73;;;2.20;72.30;;;;;;5054634;28;20446;-77
2021/01/08 09:37:14;;;;;;;11.27;8.60;;;2.30;72.40;;;;;;5049549;28;20505;-78
2021/01/08 09:39:44;;;;;;;15.03;9.03;;;2.30;72.10;;;;;;5048999;28;20503;-78
2021/01/08 09:42:13;;;;;;;13.10;9.00;;;2.30;72.10;;;;;;5056567;28;20774;-79
2021/01/08 09:44:42;;;;;;;10.23;8.60;;;2.40;72.00;;;;;;5038408;28;20462;-77
2021/01/08 09:47:12;;;;;;;10.50;8.93;;;2.50;71.90;;;;;;5062601;28;20786;-85
2021/01/08 09:49:50;;;;;;;9.73;8.20;;;2.50;72.00;;;;;;5060821;28;20521;-86
2021/01/08 09:52:27;;;;;;;10.60;8.13;;;2.60;71.90;;;;;;5047574;28;20489;-86
2021/01/08 09:54:55;;;;;;;12.17;9.47;;;2.50;71.40;;;;;;5061751;28;20868;-86
2021/01/08 09:57:28;;;;;;;11.13;8.60;;;2.50;71.50;;;;;;5057908;28;20459;-86
2021/01/08 10:00:07;;;;;;;9.97;8.20;;;2.60;71.50;;;;;;5040791;28;20446;-86
2021/01/08 10:02:39;;;;;;;9.80;6.80;;;2.60;71.40;;;;;;5061647;28;20461;-86
2021/01/08 10:05:10;;;;;;;10.50;8.03;;;2.80;71.40;;;;;;5060774;28;20452;-86
2021/01/08 10:07:45;;;;;;;9.63;7.93;;;2.90;71.10;;;;;;5051981;28;20525;-86
2021/01/08 10:10:14;;;;;;;8.30;7.40;;;3.10;71.90;;;;;;5059284;28;20463;-85
2021/01/08 10:12:49;;;;;;;11.80;8.20;;;3.10;70.90;;;;;;5056596;28;20464;-87
2021/01/08 10:15:29;;;;;;;9.40;7.37;;;3.10;70.70;;;;;;5047702;28;20470;-87
2021/01/08 10:18:24;;;;;;;9.60;7.80;;;2.90;70.50;;;;;;5055949;28;20450;-84
2021/01/08 10:20:52;;;;;;;9.10;7.33;;;2.90;70.70;;;;;;5054796;28;20467;-87
2021/01/08 10:23:20;;;;;;;10.00;7.20;;;2.60;70.70;;;;;;5055515;28;20524;-86
2021/01/08 10:25:49;;;;;;;10.87;7.50;;;2.80;71.10;;;;;;5074912;28;20456;-87
2021/01/08 10:28:22;;;;;;;11.43;8.03;;;2.70;70.60;;;;;;5047343;28;20467;-86
2021/01/08 10:30:55;;;;;;;10.40;9.07;;;2.60;71.30;;;;;;5063312;28;20571;-86
2021/01/08 10:33:23;;;;;;;10.37;7.87;;;2.70;71.20;;;;;;5061718;28;20471;-87
2021/01/08 10:35:53;;;;;;;9.33;7.97;;;2.60;71.10;;;;;;5045309;28;20685;-86
2021/01/08 10:38:21;;;;;;;9.67;7.70;;;2.60;70.80;;;;;;5040035;28;20458;-87
2021/01/08 10:40:48;;;;;;;10.50;8.27;;;2.60;71.00;;;;;;5061486;28;20989;-87
2021/01/08 10:43:25;;;;;;;8.90;7.60;;;2.60;71.30;;;;;;5061999;28;20461;-85
2021/01/08 10:45:56;;;;;;;9.50;7.77;;;2.70;70.90;;;;;;5063197;28;20967;-86
2021/01/08 10:48:22;;;;;;;12.27;9.23;;;2.70;71.30;;;;;;5066056;28;20443;-85
2021/01/08 10:50:49;;;;;;;9.40;8.17;;;2.70;71.20;;;;;;5048286;28;20474;-79
2021/01/08 10:53:15;;;;;;;9.73;7.93;;;2.50;71.60;;;;;;5059829;28;20784;-80
2021/01/08 10:55:45;;;;;;;9.10;7.73;;;2.60;71.80;;;;;;5057100;28;20465;-78
2021/01/08 10:58:12;;;;;;;10.93;8.80;;;2.50;72.00;;;;;;5054423;28;20455;-79
2021/01/08 11:00:38;;;;;;;9.50;8.10;;;2.50;72.10;;;;;;5048060;28;20459;-78
2021/01/08 11:03:06;;;;;;;10.13;8.10;;;2.50;72.10;;;;;;5061479;28;20458;-78
2021/01/08 11:05:37;;;;;;;10.13;7.73;;;2.50;72.10;;;;;;5050404;28;20452;-78
2021/01/08 11:08:03;;;;;;;10.50;8.60;;;2.40;72.40;;;;;;5055161;28;20450;-75
2021/01/08 11:10:30;;;;;;;10.90;9.27;;;2.40;73.00;;;;;;5047828;28;20495;-75
2021/01/08 11:12:57;;;;;;;9.43;7.97;;;2.50;73.30;;;;;;5055168;28;20557;-75
2021/01/08 11:15:23;;;;;;;9.20;7.50;;;2.70;72.70;;;;;;5048343;28;20458;-75
2021/01/08 11:17:50;;;;;;;9.87;7.77;;;2.60;72.60;;;;;;5051372;28;20525;-75
2021/01/08 11:20:18;;;;;;;9.37;7.23;;;2.60;72.40;;;;;;5052719;28;20946;-77
2021/01/08 11:22:44;;;;;;;9.50;7.67;;;2.70;72.50;;;;;;5050528;28;20450;-77
2021/01/08 11:25:13;;;;;;;8.63;7.70;;;2.80;72.00;;;;;;5052858;28;20460;-76
2021/01/08 11:27:40;;;;;;;9.53;8.27;;;2.70;71.60;;;;;;5057552;28;20484;-76
2021/01/08 11:30:08;;;;;;;9.07;7.03;;;2.60;71.80;;;;;;5042836;28;20456;-76
2021/01/08 11:32:35;;;;;;;7.60;6.80;;;2.70;72.30;;;;;;5051558;28;20452;-76
2021/01/08 11:35:03;;;;;;;8.80;7.90;;;2.80;72.40;;;;;;5054536;28;20540;-76
2021/01/08 11:37:31;;;;;;;7.43;6.63;;;2.70;71.60;;;;;;5050611;28;20459;-75
2021/01/08 11:39:59;;;;;;;7.90;6.63;;;2.60;71.50;;;;;;5050056;28;20542;-77
2021/01/08 11:42:26;;;;;;;13.17;7.50;;;2.80;72.00;;;;;;5045646;28;20451;-76
2021/01/08 11:44:52;;;;;;;7.00;6.30;;;2.70;72.20;;;;;;5052353;28;21007;-77
2021/01/08 11:47:19;;;;;;;8.47;7.20;;;2.90;72.00;;;;;;5048408;28;20458;-77
2021/01/08 11:49:49;;;;;;;7.50;6.40;;;2.80;71.90;;;;;;5044628;28;20457;-77
2021/01/08 11:52:16;;;;;;;8.40;7.33;;;3.00;72.10;;;;;;5048413;28;20485;-76
2021/01/08 11:54:43;;;;;;;9.00;7.30;;;3.10;72.00;;;;;;5048281;28;20451;-77
2021/01/08 11:57:10;;;;;;;8.23;7.13;;;3.10;72.00;;;;;;5056832;28;20450;-75
2021/01/08 11:59:36;;;;;;;7.07;6.37;;;2.80;72.20;;;;;;5061274;28;20475;-76
2021/01/08 12:02:04;;;;;;;8.57;7.30;;;2.60;72.90;;;;;;5067538;28;20459;-76
2021/01/08 12:04:31;;;;;;;8.70;7.87;;;2.50;73.60;;;;;;5062500;28;20440;-75
2021/01/08 12:07:03;;;;;;;9.47;8.00;;;2.50;73.80;;;;;;5050753;28;20920;-75
2021/01/08 12:09:31;;;;;;;8.17;6.80;;;2.40;74.20;;;;;;5050626;28;20483;-75
2021/01/08 12:12:01;;;;;;;8.37;7.57;;;2.30;74.60;;;;;;5048454;28;20476;-76
2021/01/08 12:14:28;;;;;;;9.37;7.77;;;2.30;75.40;;;;;;5051361;28;20485;-76
2021/01/08 12:16:55;;;;;;;10.27;8.00;;;2.40;75.70;;;;;;5043267;28;20845;-76
2021/01/08 12:19:24;;;;;;;9.80;8.17;;;2.30;75.70;;;;;;5041848;28;20515;-76
2021/01/08 12:21:50;;;;;;;11.67;8.43;;;2.30;76.50;;;;;;5045747;28;20446;-76
2021/01/08 12:24:17;;;;;;;8.67;7.83;;;2.30;76.80;;;;;;5045629;28;20457;-76
2021/01/08 12:26:43;;;;;;;9.47;8.47;;;2.30;77.30;;;;;;5047813;28;20501;-76
2021/01/08 12:29:11;;;;;;;10.10;8.40;;;2.30;77.30;;;;;;5047316;28;20458;-77
2021/01/08 12:31:40;;;;;;;13.43;8.63;;;2.20;77.30;;;;;;5064238;28;20490;-77
2021/01/08 12:34:06;;;;;;;10.70;8.03;;;2.20;77.60;;;;;;5067711;28;20458;-76
2021/01/08 12:36:32;;;;;;;9.43;8.43;;;2.00;78.20;;;;;;5051681;28;20447;-75
2021/01/08 12:38:59;;;;;;;10.83;8.20;;;2.00;79.80;;;;;;5042473;28;20444;-76
2021/01/08 12:41:25;;;;;;;9.50;8.57;;;2.20;81.10;;;;;;5053977;28;20469;-76
2021/01/08 12:43:52;;;;;;;9.63;8.63;;;2.20;79.70;;;;;;5053864;28;20455;-76
2021/01/08 12:46:20;;;;;;;10.30;9.00;;;2.20;80.70;;;;;;5049137;28;20555;-76
2021/01/08 12:48:47;;;;;;;9.73;8.50;;;2.30;80.90;;;;;;5052680;28;20452;-76
2021/01/08 12:51:14;;;;;;;9.70;8.40;;;2.30;80.50;;;;;;5048347;28;20463;-76
2021/01/08 12:53:41;;;;;;;8.70;7.53;;;2.30;80.30;;;;;;5049886;28;20538;-75
2021/01/08 12:56:12;;;;;;;9.80;8.80;;;2.40;80.30;;;;;;5052395;28;20476;-77
2021/01/08 12:58:39;;;;;;;11.10;8.80;;;2.20;81.70;;;;;;5037260;28;20501;-80